Time;durP1;ratioP1;P1;durP2;ratioP2;P2;SDS_P1;SDS_P2;PMS_P1;PMS_P2;Temp;Humidity;BMP_temperature;BMP_pressure;BME280_temperature;BME280_humidity;BME280_pressure;Samples;Min_cycle;Max_cycle;Signal;HPM_P1;HPM_P2
2021/10/25 00:02:19;;;;;;;6.13;4.18;;;;;;;15.69;63.28;102736.50;4999277;28;102459;-48
2021/10/25 00:04:45;;;;;;;5.90;4.28;;;;;;;15.68;63.06;102743.06;5004123;28;102545;-49
2021/10/25 00:07:12;;;;;;;8.20;4.03;;;;;;;15.68;63.01;102741.13;5003214;28;102392;-49
2021/10/25 00:09:49;;;;;;;6.45;4.57;;;;;;;15.68;63.72;102743.06;5004918;28;103498;-50
2021/10/25 00:12:15;;;;;;;6.45;4.47;;;;;;;15.69;63.03;102739.25;5006285;28;103348;-49
2021/10/25 00:14:44;;;;;;;7.28;5.45;;;;;;;15.69;63.37;102742.00;5004052;28;102272;-49
2021/10/25 00:17:12;;;;;;;6.78;4.88;;;;;;;15.69;63.52;102742.00;5013870;28;102420;-49
2021/10/25 00:19:39;;;;;;;4.75;4.13;;;;;;;15.68;63.41;102743.06;4998571;28;104068;-50
2021/10/25 00:22:09;;;;;;;5.93;4.65;;;;;;;15.69;63.37;102748.31;5009936;28;102184;-49
2021/10/25 00:24:35;;;;;;;7.53;4.68;;;;;;;15.69;63.06;102742.00;5004442;28;101987;-49
2021/10/25 00:27:03;;;;;;;5.78;4.22;;;;;;;15.69;63.02;102745.56;5006643;28;102411;-49
2021/10/25 00:29:32;;;;;;;6.65;4.55;;;;;;;15.69;63.21;102750.22;5005083;28;104235;-49
2021/10/25 00:31:59;;;;;;;7.13;4.82;;;;;;;15.69;63.40;102747.50;5000221;28;102464;-50
2021/10/25 00:34:27;;;;;;;6.63;4.32;;;;;;;15.69;63.11;102747.50;5003038;27;102437;-49
2021/10/25 00:36:53;;;;;;;5.35;3.60;;;;;;;15.70;63.28;102749.13;5009737;28;102323;-49
2021/10/25 00:39:20;;;;;;;6.13;4.15;;;;;;;15.69;63.59;102753.81;5001178;28;104035;-49
2021/10/25 00:41:48;;;;;;;6.80;4.43;;;;;;;15.68;63.16;102752.13;5008766;28;102348;-49
2021/10/25 00:44:15;;;;;;;5.57;4.15;;;;;;;15.70;63.49;102754.63;4996723;28;102588;-49
2021/10/25 00:46:41;;;;;;;5.57;4.15;;;;;;;15.69;63.37;102758.47;5008150;28;102528;-49
2021/10/25 00:49:08;;;;;;;6.28;3.70;;;;;;;15.69;63.38;102752.97;4993878;28;104090;-48
2021/10/25 00:51:36;;;;;;;5.10;4.07;;;;;;;15.69;63.16;102759.28;5009254;28;102260;-49
2021/10/25 00:54:03;;;;;;;7.00;4.43;;;;;;;15.69;63.21;102758.47;4996500;28;102541;-49
2021/10/25 00:56:32;;;;;;;6.63;4.13;;;;;;;15.68;63.35;102763.09;5014716;28;102435;-47
2021/10/25 00:58:59;;;;;;;4.80;3.70;;;;;;;15.70;63.59;102760.13;5001978;28;103697;-49
2021/10/25 01:01:25;;;;;;;4.80;3.80;;;;;;;15.69;63.40;102755.72;5012375;28;102565;-49
2021/10/25 01:03:52;;;;;;;6.22;4.00;;;;;;;15.68;63.26;102757.63;5001503;28;102733;-48
2021/10/25 01:06:19;;;;;;;6.13;4.00;;;;;;;15.70;63.34;102760.13;5009605;28;102504;-48
2021/10/25 01:08:48;;;;;;;5.30;3.97;;;;;;;15.69;63.61;102758.47;5006895;28;104284;-49
2021/10/25 01:11:14;;;;;;;6.75;3.92;;;;;;;15.69;63.18;102762.03;5002401;28;102412;-48
2021/10/25 01:13:41;;;;;;;6.05;4.13;;;;;;;15.69;63.49;102766.69;5000070;28;102467;-49
2021/10/25 01:16:09;;;;;;;6.38;4.15;;;;;;;15.69;63.71;102763.97;5012863;28;102682;-51
2021/10/25 01:18:36;;;;;;;6.65;3.72;;;;;;;15.69;63.55;102770.28;5004203;28;104012;-48
2021/10/25 01:21:04;;;;;;;5.50;3.80;;;;;;;15.69;63.30;102774.94;5008662;28;102966;-50
2021/10/25 01:23:32;;;;;;;5.88;4.07;;;;;;;15.69;63.36;102774.94;5016545;28;102062;-48
2021/10/25 01:25:59;;;;;;;4.72;3.47;;;;;;;15.69;63.56;102774.94;5023778;28;102154;-48
2021/10/25 01:28:25;;;;;;;5.15;3.60;;;;;;;15.69;63.28;102774.94;5017552;28;102972;-49
2021/10/25 01:30:52;;;;;;;5.15;3.30;;;;;;;15.69;63.58;102780.44;5018474;28;102136;-50
2021/10/25 01:33:19;;;;;;;5.72;3.80;;;;;;;15.69;63.60;102780.44;5009202;28;102682;-50
2021/10/25 01:35:45;;;;;;;4.45;3.63;;;;;;;15.68;63.28;102784.22;5008110;28;103204;-49
2021/10/25 01:38:14;;;;;;;5.32;3.70;;;;;;;15.68;63.10;102786.97;5013505;28;103963;-49
2021/10/25 01:40:40;;;;;;;5.00;3.55;;;;;;;15.68;63.35;102795.22;5010683;28;102143;-49
2021/10/25 01:43:07;;;;;;;5.57;3.35;;;;;;;15.68;63.29;102784.22;5015818;28;102789;-49
2021/10/25 01:45:34;;;;;;;5.93;3.53;;;;;;;15.68;63.27;102795.22;5014906;28;102324;-49
2021/10/25 01:48:00;;;;;;;4.40;3.50;;;;;;;15.68;63.67;102797.97;5007331;28;104103;-50
2021/10/25 01:50:27;;;;;;;4.70;3.17;;;;;;;15.68;63.57;102790.56;5010944;28;102526;-49
2021/10/25 01:52:55;;;;;;;5.53;3.17;;;;;;;15.68;63.50;102800.69;5009069;28;102537;-49
2021/10/25 01:55:23;;;;;;;4.28;3.33;;;;;;;15.68;63.83;102796.03;5004723;28;102696;-49
2021/10/25 01:57:49;;;;;;;4.35;2.65;;;;;;;15.68;63.65;102800.69;5005589;28;104187;-48
2021/10/25 02:00:16;;;;;;;3.72;3.03;;;;;;;15.67;63.63;102804.53;5011469;28;102496;-49
2021/10/25 02:02:44;;;;;;;3.55;2.95;;;;;;;15.68;63.43;102800.69;5009805;28;102123;-50
2021/10/25 02:05:10;;;;;;;5.57;3.30;;;;;;;15.67;63.42;102799.06;5001945;28;102129;-49
2021/10/25 02:07:39;;;;;;;3.85;2.85;;;;;;;15.66;63.43;102795.47;5015262;28;104078;-49
2021/10/25 02:10:07;;;;;;;4.05;2.92;;;;;;;15.67;63.54;102782.59;5014796;28;102259;-49
2021/10/25 02:12:35;;;;;;;4.63;3.08;;;;;;;15.67;63.43;102796.31;5004598;28;102208;-49
2021/10/25 02:15:02;;;;;;;4.17;3.47;;;;;;;15.67;63.69;102804.53;5008659;28;102618;-49
2021/10/25 02:17:29;;;;;;;5.22;3.03;;;;;;;15.67;63.65;102799.06;5009196;28;104043;-49
2021/10/25 02:19:55;;;;;;;3.35;2.50;;;;;;;15.67;63.54;102804.53;5013564;28;102149;-50
2021/10/25 02:22:23;;;;;;;4.05;2.72;;;;;;;15.66;63.47;102806.47;5004620;28;102181;-48
2021/10/25 02:24:50;;;;;;;4.13;3.00;;;;;;;15.66;63.21;102806.47;5006732;28;102292;-49
2021/10/25 02:27:17;;;;;;;4.22;2.78;;;;;;;15.66;63.83;102814.69;5003634;28;104186;-49
2021/10/25 02:29:44;;;;;;;3.67;2.88;;;;;;;15.66;63.67;102808.38;5008741;28;101969;-48
2021/10/25 02:32:15;;;;;;;3.78;2.90;;;;;;;15.65;63.62;102810.25;5012455;28;102412;-49
2021/10/25 02:34:43;;;;;;;4.18;3.08;;;;;;;15.66;63.82;102797.41;5005135;28;102690;-49
2021/10/25 02:37:10;;;;;;;3.20;2.63;;;;;;;15.66;63.56;102809.22;5009944;28;104153;-49
2021/10/25 02:39:38;;;;;;;2.70;2.35;;;;;;;15.65;63.51;102812.16;5005151;28;102122;-49
2021/10/25 02:42:04;;;;;;;3.40;2.70;;;;;;;15.65;63.79;102807.53;5011624;28;102373;-49
2021/10/25 02:44:31;;;;;;;2.80;2.25;;;;;;;15.65;63.72;102809.41;5005589;28;102321;-49
2021/10/25 02:46:59;;;;;;;2.90;2.35;;;;;;;15.65;63.68;102813.00;5004071;28;102401;-47
2021/10/25 02:49:26;;;;;;;3.00;2.42;;;;;;;15.65;63.27;102807.53;4996204;28;102145;-49
2021/10/25 02:51:52;;;;;;;3.45;2.63;;;;;;;15.65;63.31;102820.38;5012691;28;102698;-49
2021/10/25 02:54:20;;;;;;;2.65;2.30;;;;;;;15.65;63.56;102817.66;5011124;28;102550;-49
2021/10/25 02:56:47;;;;;;;4.18;2.22;;;;;;;15.64;63.83;102825.06;5007986;28;103919;-48
2021/10/25 02:59:14;;;;;;;3.90;2.55;;;;;;;15.63;63.38;102821.47;4993782;28;102600;-49
2021/10/25 03:01:41;;;;;;;2.97;2.28;;;;;;;15.64;63.31;102822.31;5012243;28;102266;-50
2021/10/25 03:04:09;;;;;;;3.47;2.40;;;;;;;15.65;63.28;102834.13;4997842;28;102701;-49
2021/10/25 03:06:36;;;;;;;3.13;2.40;;;;;;;15.63;63.42;102831.63;5008680;28;103925;-49
2021/10/25 03:09:04;;;;;;;2.75;2.15;;;;;;;15.66;63.39;102835.84;5005922;28;102165;-49
2021/10/25 03:11:32;;;;;;;2.50;2.17;;;;;;;15.64;63.39;102833.28;5013178;28;102407;-49
2021/10/25 03:13:58;;;;;;;3.35;2.25;;;;;;;15.65;63.45;102831.38;5006518;28;102278;-49
2021/10/25 03:16:25;;;;;;;2.97;2.40;;;;;;;15.63;63.90;102829.72;5006503;28;103682;-49
2021/10/25 03:18:51;;;;;;;3.53;2.67;;;;;;;15.64;63.73;102838.78;5011215;28;102763;-49
2021/10/25 03:21:21;;;;;;;4.22;2.35;;;;;;;15.63;63.81;102832.47;5011025;28;102377;-49
2021/10/25 03:23:49;;;;;;;3.95;2.40;;;;;;;15.63;63.72;102837.13;5008386;28;102579;-49
2021/10/25 03:26:16;;;;;;;2.78;1.98;;;;;;;15.63;63.26;102837.94;5006950;28;103712;-49
2021/10/25 03:28:43;;;;;;;3.15;2.25;;;;;;;15.63;63.44;102832.47;5008652;28;102527;-49
2021/10/25 03:31:11;;;;;;;3.08;2.22;;;;;;;15.63;63.40;102832.47;5009424;28;102210;-49
2021/10/25 03:33:38;;;;;;;3.10;1.80;;;;;;;15.63;63.48;102840.69;5001200;28;102283;-49
2021/10/25 03:36:06;;;;;;;2.28;2.03;;;;;;;15.63;63.40;102832.47;5007569;28;103985;-50
2021/10/25 03:38:38;;;;;;;3.25;2.28;;;;;;;15.63;63.71;102826.16;5002081;28;103032;-50
2021/10/25 03:41:09;;;;;;;3.50;2.30;;;;;;;15.62;63.72;102836.31;5012367;28;102537;-50
2021/10/25 03:43:39;;;;;;;2.65;2.30;;;;;;;15.62;63.72;102830.81;5010434;28;102469;-49
2021/10/25 03:46:20;;;;;;;2.38;2.13;;;;;;;15.64;63.59;102836.03;5009850;28;103878;-49
2021/10/25 03:51:17;;;;;;;;;;;;;;;15.63;63.87;102832.47;5011662;28;102059;-48
2021/10/25 04:01:48;;;;;;;4.20;3.67;;;;;;;15.62;63.67;102825.31;5005877;28;101964;-49
2021/10/25 04:28:37;;;;;;;5.10;4.60;;;;;;;15.63;63.93;102842.63;5007302;28;104408;-48
2021/10/25 04:31:03;;;;;;;;;;;;;;;15.61;63.74;102834.66;4998509;28;103155;-49
2021/10/25 04:33:30;;;;;;;4.88;4.38;;;;;;;15.62;63.88;102836.31;5001759;28;102450;-48
2021/10/25 04:35:56;;;;;;;4.50;4.10;;;;;;;15.61;63.44;102840.13;5011503;28;102181;-49
2021/10/25 04:38:23;;;;;;;4.78;4.32;;;;;;;15.62;63.74;102847.28;5005108;28;103901;-50
2021/10/25 04:40:49;;;;;;;4.90;4.15;;;;;;;15.62;63.92;102847.28;5001784;28;102709;-49
2021/10/25 04:43:19;;;;;;;4.38;3.97;;;;;;;15.63;63.81;102845.34;5007136;28;102595;-49
2021/10/25 04:45:47;;;;;;;4.75;4.28;;;;;;;15.62;63.62;102841.78;5003586;28;102696;-49
2021/10/25 04:48:14;;;;;;;4.32;3.92;;;;;;;15.62;63.83;102847.28;4998977;28;102308;-50
2021/10/25 04:50:41;;;;;;;4.32;3.92;;;;;;;15.63;63.56;102851.69;4991539;28;102327;-48
2021/10/25 04:53:08;;;;;;;4.72;3.85;;;;;;;15.62;63.89;102855.50;4999840;28;102454;-49
2021/10/25 04:55:34;;;;;;;4.68;4.20;;;;;;;15.62;63.59;102850.03;5000204;28;103848;-48
2021/10/25 04:58:01;;;;;;;4.32;3.85;;;;;;;15.62;63.47;102847.28;5004234;28;104183;-49
2021/10/25 05:00:29;;;;;;;4.68;4.28;;;;;;;15.62;63.66;102854.69;5004851;28;102203;-49
2021/10/25 05:02:57;;;;;;;4.55;4.15;;;;;;;15.62;63.92;102858.25;5003755;28;102564;-51
2021/10/25 05:05:23;;;;;;;4.43;3.65;;;;;;;15.63;63.39;102864.56;5008564;28;104319;-49
2021/10/25 05:07:50;;;;;;;4.43;3.88;;;;;;;15.63;63.82;102854.41;5005393;28;103942;-49
2021/10/25 05:10:17;;;;;;;4.35;3.95;;;;;;;15.64;63.62;102855.25;5007370;28;102030;-48
2021/10/25 05:12:43;;;;;;;4.43;3.97;;;;;;;15.63;63.63;102854.41;5005885;28;102299;-49
2021/10/25 05:15:19;;;;;;;4.32;3.70;;;;;;;15.65;63.46;102861.56;5006264;28;102364;-49
2021/10/25 05:17:47;;;;;;;3.97;3.58;;;;;;;15.66;63.72;102863.28;5006513;28;103889;-49
2021/10/25 05:20:14;;;;;;;4.03;3.60;;;;;;;15.65;64.04;102859.69;5009335;28;103209;-49
2021/10/25 05:22:40;;;;;;;3.50;3.20;;;;;;;15.65;63.89;102867.06;5010272;28;102593;-49
2021/10/25 05:25:07;;;;;;;3.97;3.40;;;;;;;15.65;63.88;102867.91;5009331;28;102566;-49
2021/10/25 05:27:35;;;;;;;3.70;3.40;;;;;;;15.66;64.19;102871.50;4999855;28;103679;-49
2021/10/25 05:30:01;;;;;;;4.10;3.45;;;;;;;15.66;63.64;102869.59;4994207;28;104272;-49
2021/10/25 05:32:28;;;;;;;4.70;3.92;;;;;;;15.66;63.63;102866.03;4999216;28;102006;-48
2021/10/25 05:34:56;;;;;;;4.00;3.55;;;;;;;15.66;63.75;102871.50;5006575;28;102764;-48
2021/10/25 05:37:24;;;;;;;3.67;3.30;;;;;;;15.65;63.59;102872.53;5002428;28;103805;-48
2021/10/25 05:39:51;;;;;;;3.53;3.20;;;;;;;15.66;63.71;102874.25;5001953;28;102603;-49
2021/10/25 05:42:17;;;;;;;3.30;3.00;;;;;;;15.66;63.94;102882.50;4996782;28;106814;-49
2021/10/25 05:44:43;;;;;;;3.92;3.10;;;;;;;15.65;63.90;102889.88;5002137;28;102516;-50
2021/10/25 05:47:10;;;;;;;3.03;2.80;;;;;;;15.67;63.99;102884.16;4995729;28;103915;-49
2021/10/25 05:49:37;;;;;;;3.20;2.90;;;;;;;15.68;64.04;102894.03;5007367;28;102365;-50
2021/10/25 05:52:05;;;;;;;3.05;2.75;;;;;;;15.67;63.69;102892.38;5009452;28;102616;-50
2021/10/25 05:54:32;;;;;;;3.30;3.00;;;;;;;15.66;63.79;102897.03;5010710;28;102387;-50
2021/10/25 05:56:59;;;;;;;3.35;3.05;;;;;;;15.68;63.64;102894.03;5007352;28;104025;-50
2021/10/25 05:59:26;;;;;;;3.10;2.80;;;;;;;15.68;64.02;102899.53;5017212;28;103501;-49
2021/10/25 06:01:58;;;;;;;3.20;2.90;;;;;;;15.68;64.14;102894.03;5018572;28;102012;-50
2021/10/25 06:04:26;;;;;;;2.75;2.55;;;;;;;15.68;63.65;102902.25;5012573;28;102647;-49
2021/10/25 06:06:52;;;;;;;3.30;3.00;;;;;;;15.67;64.00;102906.94;5009860;28;104266;-50
2021/10/25 06:09:21;;;;;;;3.10;2.80;;;;;;;15.68;63.70;102905.84;4997095;28;102510;-48
2021/10/25 06:11:47;;;;;;;2.70;2.50;;;;;;;15.69;63.69;102906.69;5003862;28;102369;-49
2021/10/25 06:14:17;;;;;;;3.13;2.83;;;;;;;15.68;63.91;102905.00;5011580;28;102325;-50
2021/10/25 06:16:43;;;;;;;3.45;2.80;;;;;;;15.69;63.71;102909.44;5011261;28;103369;-49
2021/10/25 06:19:11;;;;;;;3.35;2.88;;;;;;;15.68;63.69;102903.09;5000523;28;103622;-49
2021/10/25 06:21:38;;;;;;;2.80;2.60;;;;;;;15.69;63.82;102912.19;5001863;28;102390;-49
2021/10/25 06:24:05;;;;;;;3.50;2.67;;;;;;;15.68;63.75;102911.31;5007102;28;102225;-49
2021/10/25 06:26:35;;;;;;;;;;;;;;;15.68;64.00;102918.75;4995374;28;103721;-47
2021/10/25 06:29:02;;;;;;;3.05;2.75;;;;;;;15.69;63.69;102914.94;5003589;28;102413;-48
2021/10/25 06:31:28;;;;;;;2.72;2.42;;;;;;;15.69;64.29;102925.91;5000444;28;102144;-49
2021/10/25 06:33:58;;;;;;;3.10;2.80;;;;;;;15.68;64.08;102916.00;5011318;28;102595;-49
2021/10/25 06:36:24;;;;;;;2.58;2.25;;;;;;;15.68;63.91;102921.47;5004527;28;103955;-48
2021/10/25 06:38:54;;;;;;;3.33;2.50;;;;;;;15.68;63.73;102927.78;5004352;28;102311;-50
2021/10/25 06:41:22;;;;;;;2.75;2.53;;;;;;;15.68;64.29;102933.28;5007051;28;102491;-48
2021/10/25 06:43:50;;;;;;;2.50;2.30;;;;;;;15.68;64.19;102933.28;5006798;28;102310;-49
2021/10/25 06:46:17;;;;;;;2.72;2.40;;;;;;;15.68;64.10;102932.47;5010068;28;104001;-48
2021/10/25 06:48:44;;;;;;;2.80;2.60;;;;;;;15.67;64.15;102925.31;5008447;28;105553;-48
2021/10/25 06:51:11;;;;;;;2.50;2.30;;;;;;;15.68;64.19;102930.53;5011187;28;102003;-49
2021/10/25 06:53:38;;;;;;;2.60;2.40;;;;;;;15.67;64.10;102928.88;5006274;28;102634;-48
2021/10/25 06:56:04;;;;;;;3.65;2.45;;;;;;;15.68;63.96;102926.97;5009732;28;103904;-49
2021/10/25 06:58:31;;;;;;;2.65;2.33;;;;;;;15.67;63.85;102922.56;5006976;28;107078;-49
2021/10/25 07:01:00;;;;;;;2.38;2.17;;;;;;;15.67;63.75;102930.81;5005056;28;103140;-49
2021/10/25 07:03:27;;;;;;;2.65;2.45;;;;;;;15.67;64.33;102931.63;5009624;28;102109;-49
2021/10/25 07:05:55;;;;;;;2.67;2.47;;;;;;;15.66;64.24;102929.16;5007053;28;102749;-48
2021/10/25 07:08:21;;;;;;;2.80;2.40;;;;;;;15.66;64.09;102929.97;5006194;28;102667;-48
2021/10/25 07:10:48;;;;;;;2.45;2.05;;;;;;;15.67;63.77;102928.06;5006407;28;102551;-50
2021/10/25 07:13:16;;;;;;;2.90;2.30;;;;;;;15.66;64.01;102924.50;5000326;28;102732;-50
2021/10/25 07:15:49;;;;;;;2.50;2.30;;;;;;;15.67;64.22;102925.31;5004294;28;103926;-49
2021/10/25 07:18:33;;;;;;;2.80;2.10;;;;;;;15.66;63.84;102923.66;5004109;28;106343;-49
2021/10/25 08:09:56;;;;;;;1.90;1.75;;;;;;;15.62;63.96;102910.41;4978492;28;103736;-49
2021/10/25 08:12:26;;;;;;;2.30;1.73;;;;;;;15.63;64.11;102914.81;5008791;28;102185;-48
2021/10/25 08:15:00;;;;;;;2.40;1.83;;;;;;;15.63;63.83;102914.81;5003491;28;103520;-49
2021/10/25 08:17:42;;;;;;;1.70;1.60;;;;;;;15.63;63.62;102920.28;5002456;28;102405;-50
2021/10/25 08:20:10;;;;;;;1.95;1.60;;;;;;;15.63;64.09;102916.72;4999841;28;104460;-49
2021/10/25 08:22:40;;;;;;;1.98;1.70;;;;;;;15.63;63.67;102920.28;5008195;28;102402;-49
2021/10/25 08:25:08;;;;;;;2.00;1.70;;;;;;;15.63;63.96;102920.28;5002300;28;102468;-48
2021/10/25 08:27:40;;;;;;;2.58;1.73;;;;;;;15.63;63.70;102914.81;5005863;28;103483;-49
2021/10/25 08:30:07;;;;;;;2.90;1.73;;;;;;;15.63;63.53;102925.78;4997385;28;103909;-49
2021/10/25 08:40:58;;;;;;;1.95;1.73;;;;;;;15.65;63.95;102924.69;4957888;28;103913;-49
2021/10/25 08:43:24;;;;;;;3.22;1.73;;;;;;;15.63;63.54;102928.53;4986048;28;102651;-50
2021/10/25 08:45:55;;;;;;;4.15;1.77;;;;;;;15.65;63.66;102927.44;5011913;28;102608;-49
2021/10/25 08:48:22;;;;;;;2.28;1.60;;;;;;;15.64;63.75;102929.34;5007424;28;102543;-49
2021/10/25 08:50:49;;;;;;;2.95;1.70;;;;;;;15.63;64.05;102925.78;4999820;28;103766;-49
2021/10/25 08:53:18;;;;;;;1.77;1.67;;;;;;;15.63;63.85;102914.81;5001758;27;103261;-49
2021/10/25 08:55:50;;;;;;;3.47;1.85;;;;;;;15.65;63.87;102921.94;4993301;27;102729;-50
2021/10/25 08:58:18;;;;;;;1.73;1.30;;;;;;;15.63;63.89;102925.78;4993521;28;103761;-48
2021/10/25 09:00:50;;;;;;;1.92;1.67;;;;;;;15.65;63.44;102930.19;5000364;28;103953;-49
2021/10/25 09:03:18;;;;;;;80.00;10.93;;;;;;;15.65;63.54;102932.94;4998582;28;102197;-49
2021/10/25 09:05:53;;;;;;;5.38;1.90;;;;;;;15.63;63.55;102927.69;5005628;28;102324;-50
2021/10/25 09:08:21;;;;;;;1.75;1.48;;;;;;;15.65;63.64;102932.94;5002202;28;102720;-49
2021/10/25 09:10:48;;;;;;;3.85;1.73;;;;;;;15.63;63.67;102931.28;4996483;28;103962;-48
2021/10/25 09:13:17;;;;;;;5.63;1.52;;;;;;;15.63;63.80;102931.28;4991714;28;105192;-49
2021/10/25 09:15:47;;;;;;;1.90;1.55;;;;;;;15.65;63.92;102938.41;4993020;28;103135;-49
2021/10/25 09:18:16;;;;;;;2.78;1.52;;;;;;;15.63;63.66;102928.53;4994889;28;102843;-49
2021/10/25 09:20:45;;;;;;;2.15;1.27;;;;;;;15.64;63.79;102926.59;4991867;28;104280;-50
2021/10/25 09:23:14;;;;;;;2.38;1.80;;;;;;;15.65;63.56;102924.69;4999972;28;103074;-49
2021/10/25 09:25:43;;;;;;;3.60;1.60;;;;;;;15.63;63.54;102936.75;5007567;28;102538;-49
2021/10/25 09:28:19;;;;;;;2.30;1.40;;;;;;;15.62;63.85;102931.53;4998947;28;102100;-49
2021/10/25 09:30:49;;;;;;;66.82;8.75;;;;;;;15.63;63.65;102928.53;5000224;28;103906;-51
2021/10/25 09:33:21;;;;;;;1.90;1.65;;;;;;;15.64;63.73;102926.59;5001188;28;103713;-49
2021/10/25 09:35:54;;;;;;;2.45;1.60;;;;;;;15.64;63.84;102932.09;4996754;28;102633;-49
2021/10/25 09:38:46;;;;;;;2.78;1.80;;;;;;;15.63;63.52;102923.03;5000913;28;102146;-48
2021/10/25 09:49:07;;;;;;;4.53;1.50;;;;;;;15.63;63.36;102914.81;5000616;28;102185;-48
2021/10/25 09:51:35;;;;;;;2.17;1.65;;;;;;;15.63;63.41;102917.56;5001026;28;103910;-50
2021/10/25 09:54:02;;;;;;;2.38;2.00;;;;;;;15.63;63.50;102913.97;5000675;28;102511;-48
2021/10/25 09:56:32;;;;;;;2.50;1.60;;;;;;;15.63;63.34;102911.22;5003338;28;102323;-48
2021/10/25 10:01:41;;;;;;;2.78;1.45;;;;;;;15.62;63.28;102901.34;5003812;28;104070;-52
2021/10/25 10:04:09;;;;;;;3.58;1.50;;;;;;;15.62;63.40;102902.16;5005721;28;102252;-49
2021/10/25 10:06:36;;;;;;;2.55;1.58;;;;;;;15.61;63.61;102906.00;4993992;28;103328;-49
2021/10/25 10:09:03;;;;;;;2.50;1.83;;;;;;;15.62;63.38;102915.91;4999452;28;102606;-49
2021/10/25 10:11:32;;;;;;;1.98;1.70;;;;;;;15.62;63.38;102906.84;5001004;28;103688;-50
2021/10/25 10:14:01;;;;;;;4.20;1.83;;;;;;;15.62;63.61;102891.19;5005866;28;102527;-49
2021/10/25 10:16:29;;;;;;;1.42;1.33;;;;;;;15.61;63.60;102911.50;5007170;28;102607;-49
2021/10/25 10:19:01;;;;;;;4.07;1.60;;;;;;;15.61;63.40;102911.50;5009839;28;103922;-49
2021/10/25 10:21:29;;;;;;;2.00;1.60;;;;;;;15.60;63.15;102904.31;5007092;28;103934;-48
2021/10/25 10:24:04;;;;;;;1.70;1.52;;;;;;;15.60;63.47;102898.84;5003387;28;102315;-49
2021/10/25 10:26:33;;;;;;;3.40;1.40;;;;;;;15.61;63.41;102885.94;5002402;28;102429;-49
2021/10/25 10:29:08;;;;;;;3.33;1.65;;;;;;;15.60;63.37;102887.84;5012595;28;102220;-49
2021/10/25 10:31:35;;;;;;;2.72;1.35;;;;;;;15.60;63.26;102896.09;5006353;28;103932;-48
2021/10/25 10:34:11;;;;;;;1.92;1.30;;;;;;;15.60;63.03;102881.53;4999670;28;102254;-49
2021/10/25 10:36:50;;;;;;;1.75;1.30;;;;;;;15.60;63.01;102879.63;5005482;28;102790;-48
2021/10/25 10:39:17;;;;;;;2.05;1.48;;;;;;;15.60;63.05;102871.38;5008690;28;102526;-49
2021/10/25 10:41:53;;;;;;;2.65;1.45;;;;;;;15.60;63.41;102881.53;5005723;28;104045;-49
2021/10/25 10:44:22;;;;;;;6.65;1.77;;;;;;;15.60;63.46;102881.53;5007764;28;102395;-51
2021/10/25 10:47:07;;;;;;;3.17;1.33;;;;;;;15.59;63.13;102880.72;5008607;28;103552;-49
2021/10/25 10:49:40;;;;;;;2.97;1.63;;;;;;;15.59;63.14;102883.47;5016945;27;103169;-48
2021/10/25 10:54:47;;;;;;;3.55;1.45;;;;;;;15.58;63.22;102881.81;5016747;28;103361;-49
2021/10/25 11:00:21;;;;;;;4.60;1.70;;;;;;;15.60;63.05;102876.88;4968479;28;102755;-48
2021/10/25 11:02:53;;;;;;;2.13;1.60;;;;;;;15.58;63.06;102879.06;5005052;28;103142;-49
2021/10/25 11:05:29;;;;;;;3.17;1.80;;;;;;;15.59;63.47;102868.91;5009087;28;102334;-48
2021/10/25 11:08:04;;;;;;;2.92;1.38;;;;;;;15.58;63.32;102873.56;5005549;27;102167;-49
2021/10/25 11:10:32;;;;;;;3.13;1.52;;;;;;;15.58;63.12;102872.75;5012018;28;102395;-48
2021/10/25 11:13:05;;;;;;;2.83;1.42;;;;;;;15.59;63.18;102880.72;5012363;28;103891;-49
2021/10/25 11:15:37;;;;;;;4.55;1.58;;;;;;;15.59;63.32;102871.66;5001030;28;102962;-48
2021/10/25 11:18:04;;;;;;;3.45;1.60;;;;;;;15.59;62.97;102869.75;5003069;28;102460;-49
2021/10/25 11:20:32;;;;;;;2.35;1.60;;;;;;;15.58;63.21;102868.09;5005392;28;102237;-49
2021/10/25 11:23:04;;;;;;;2.47;1.60;;;;;;;15.58;63.23;102859.84;5004668;28;104117;-49
2021/10/25 11:25:42;;;;;;;2.47;1.48;;;;;;;15.58;63.15;102859.84;5006345;28;102161;-49
2021/10/25 11:28:18;;;;;;;3.22;1.48;;;;;;;15.58;63.23;102853.53;5010849;27;103538;-48
2021/10/25 11:30:45;;;;;;;2.40;1.50;;;;;;;15.58;63.51;102856.28;5004244;28;102541;-49
2021/10/25 11:33:14;;;;;;;2.10;1.48;;;;;;;15.58;62.94;102851.63;5000841;28;104061;-49
2021/10/25 11:35:46;;;;;;;5.18;1.75;;;;;;;15.58;63.03;102843.38;5003029;28;102450;-51
2021/10/25 11:38:13;;;;;;;2.13;1.50;;;;;;;15.58;63.36;102845.31;5012641;28;102317;-49
2021/10/25 11:40:40;;;;;;;3.70;1.48;;;;;;;15.58;63.38;102843.38;5007771;28;103897;-50
2021/10/25 11:43:06;;;;;;;2.97;1.65;;;;;;;15.58;62.88;102840.63;5000565;27;103844;-49
2021/10/25 11:45:34;;;;;;;2.67;1.52;;;;;;;15.58;63.15;102846.13;5003481;28;103819;-49
2021/10/25 11:48:01;;;;;;;5.90;2.63;;;;;;;15.57;63.47;102838.94;5003634;28;102466;-49
2021/10/25 11:50:30;;;;;;;3.05;1.60;;;;;;;15.58;63.12;102846.13;5003502;28;102446;-49
2021/10/25 11:53:01;;;;;;;2.38;1.90;;;;;;;15.58;63.11;102839.81;4999752;28;103813;-49
2021/10/25 11:55:29;;;;;;;2.17;1.60;;;;;;;15.58;63.19;102843.38;5010471;28;102189;-50
2021/10/25 11:57:57;;;;;;;;;;;;;;;15.57;63.12;102838.13;5002925;28;102518;-48
2021/10/25 12:00:26;;;;;;;2.05;1.67;;;;;;;15.58;63.33;102842.56;5008904;28;102770;-49
2021/10/25 12:02:55;;;;;;;3.35;1.40;;;;;;;15.58;62.95;102843.38;5002705;28;103892;-49
2021/10/25 12:05:24;;;;;;;6.18;1.80;;;;;;;15.57;63.06;102838.94;5000129;28;102318;-50
2021/10/25 12:07:52;;;;;;;4.15;1.58;;;;;;;15.57;62.80;102838.94;5000949;28;103652;-49
2021/10/25 12:10:20;;;;;;;3.57;1.90;;;;;;;15.57;62.94;102832.63;4998241;28;102917;-49
2021/10/25 12:12:50;;;;;;;4.85;2.03;;;;;;;15.57;63.12;102832.63;5003583;28;104051;-50
2021/10/25 12:15:20;;;;;;;3.67;1.90;;;;;;;15.57;63.00;102827.97;5010299;28;102458;-49
2021/10/25 12:17:48;;;;;;;3.08;2.00;;;;;;;15.58;63.01;102834.31;5008767;28;102133;-49
2021/10/25 12:20:23;;;;;;;3.00;1.90;;;;;;;15.58;63.12;102840.63;5013341;28;102394;-49
2021/10/25 12:23:00;;;;;;;4.97;2.13;;;;;;;15.57;62.79;102838.94;5011543;28;103934;-49
2021/10/25 12:25:28;;;;;;;2.25;1.75;;;;;;;15.57;63.13;102838.94;4999365;28;103429;-48
2021/10/25 12:27:58;;;;;;;8.63;2.10;;;;;;;15.57;62.93;102833.47;5002139;28;102709;-49
2021/10/25 12:30:27;;;;;;;2.25;1.90;;;;;;;15.57;63.36;102833.47;5012846;28;102240;-49
2021/10/25 12:32:55;;;;;;;2.93;1.70;;;;;;;15.58;63.08;102835.16;5005409;28;103698;-49
2021/10/25 12:35:38;;;;;;;4.03;2.47;;;;;;;15.58;62.94;102834.31;5000387;28;101972;-49
2021/10/25 12:38:06;;;;;;;2.13;1.90;;;;;;;15.57;63.06;102833.47;5005024;28;103277;-49
2021/10/25 12:40:38;;;;;;;4.90;2.17;;;;;;;15.58;62.90;102839.81;5009660;28;102247;-49
2021/10/25 12:43:05;;;;;;;2.10;1.70;;;;;;;15.57;63.11;102827.97;5007338;27;104093;-49
2021/10/25 12:45:44;;;;;;;3.13;1.80;;;;;;;15.58;63.33;102839.81;5010977;28;102231;-49
2021/10/25 12:48:13;;;;;;;3.85;2.40;;;;;;;15.58;63.46;102834.31;5004042;28;102192;-49
2021/10/25 12:50:44;;;;;;;4.00;1.75;;;;;;;15.57;63.31;102833.47;4997850;28;102190;-49
2021/10/25 12:53:13;;;;;;;2.42;1.85;;;;;;;15.57;63.09;102827.97;5006124;28;104550;-49
2021/10/25 12:55:42;;;;;;;3.55;2.03;;;;;;;15.57;63.43;102827.97;5009835;28;102152;-49
2021/10/25 12:58:10;;;;;;;2.58;1.90;;;;;;;15.57;63.14;102827.97;5007646;28;102828;-50
2021/10/25 13:00:38;;;;;;;3.58;2.10;;;;;;;15.57;63.42;102827.97;5008082;28;102145;-49
2021/10/25 13:03:08;;;;;;;2.33;2.13;;;;;;;15.57;63.34;102836.22;5002049;28;103974;-49
2021/10/25 13:05:40;;;;;;;2.72;1.83;;;;;;;15.57;63.30;102833.47;5014128;28;102418;-49
2021/10/25 13:08:09;;;;;;;2.35;2.00;;;;;;;15.57;63.17;102824.41;5010084;28;102216;-49
2021/10/25 13:10:38;;;;;;;2.40;2.10;;;;;;;15.56;63.30;102823.59;5007456;28;102473;-49
2021/10/25 13:13:07;;;;;;;5.05;2.78;;;;;;;15.56;63.36;102818.09;5001852;28;103964;-49